sensor_id;sensor_type;location;lat;lon;timestamp;P1;durP1;ratioP1;P2;durP2;ratioP2
45274;SDS011;31019;43.780;25.948;2022-12-10T00:01:46;96.20;;;72.72;;
45274;SDS011;31019;43.780;25.948;2022-12-10T00:04:13;141.32;;;93.07;;
45274;SDS011;31019;43.780;25.948;2022-12-10T00:06:41;166.40;;;98.15;;
45274;SDS011;31019;43.780;25.948;2022-12-10T00:09:09;113.57;;;83.35;;
45274;SDS011;31019;43.780;25.948;2022-12-10T00:11:39;101.38;;;75.55;;
45274;SDS011;31019;43.780;25.948;2022-12-10T00:14:09;104.13;;;74.78;;
45274;SDS011;31019;43.780;25.948;2022-12-10T00:16:38;116.45;;;83.10;;
45274;SDS011;31019;43.780;25.948;2022-12-10T00:19:06;115.40;;;81.53;;
45274;SDS011;31019;43.780;25.948;2022-12-10T00:21:33;122.93;;;80.60;;
45274;SDS011;31019;43.780;25.948;2022-12-10T00:24:02;98.85;;;70.50;;
45274;SDS011;31019;43.780;25.948;2022-12-10T00:26:29;93.65;;;73.30;;
45274;SDS011;31019;43.780;25.948;2022-12-10T00:28:59;92.35;;;69.97;;
45274;SDS011;31019;43.780;25.948;2022-12-10T00:31:29;96.10;;;82.30;;
45274;SDS011;31019;43.780;25.948;2022-12-10T00:34:04;108.28;;;82.82;;
45274;SDS011;31019;43.780;25.948;2022-12-10T00:36:34;87.93;;;73.15;;
45274;SDS011;31019;43.780;25.948;2022-12-10T00:39:03;73.15;;;65.32;;
45274;SDS011;31019;43.780;25.948;2022-12-10T00:41:30;92.85;;;71.97;;
45274;SDS011;31019;43.780;25.948;2022-12-10T00:43:58;135.57;;;86.68;;
45274;SDS011;31019;43.780;25.948;2022-12-10T00:46:25;148.48;;;93.25;;
45274;SDS011;31019;43.780;25.948;2022-12-10T00:48:55;139.48;;;91.45;;
45274;SDS011;31019;43.780;25.948;2022-12-10T00:51:24;176.35;;;104.65;;
45274;SDS011;31019;43.780;25.948;2022-12-10T00:53:52;131.82;;;89.47;;
45274;SDS011;31019;43.780;25.948;2022-12-10T00:56:32;140.07;;;99.18;;
45274;SDS011;31019;43.780;25.948;2022-12-10T00:58:59;132.25;;;86.50;;
45274;SDS011;31019;43.780;25.948;2022-12-10T01:01:27;141.38;;;82.20;;
45274;SDS011;31019;43.780;25.948;2022-12-10T01:03:57;142.07;;;82.25;;
45274;SDS011;31019;43.780;25.948;2022-12-10T01:06:44;140.27;;;86.93;;
45274;SDS011;31019;43.780;25.948;2022-12-10T01:11:44;122.13;;;78.43;;
45274;SDS011;31019;43.780;25.948;2022-12-10T01:14:13;114.03;;;75.05;;
45274;SDS011;31019;43.780;25.948;2022-12-10T01:16:51;151.57;;;87.97;;
45274;SDS011;31019;43.780;25.948;2022-12-10T01:19:23;113.72;;;83.75;;
45274;SDS011;31019;43.780;25.948;2022-12-10T01:21:52;95.20;;;74.75;;
45274;SDS011;31019;43.780;25.948;2022-12-10T01:26:53;112.95;;;76.05;;
45274;SDS011;31019;43.780;25.948;2022-12-10T01:29:21;110.90;;;71.60;;
45274;SDS011;31019;43.780;25.948;2022-12-10T01:31:50;113.20;;;76.38;;
45274;SDS011;31019;43.780;25.948;2022-12-10T01:34:17;112.97;;;71.88;;
45274;SDS011;31019;43.780;25.948;2022-12-10T01:36:49;120.45;;;79.72;;
45274;SDS011;31019;43.780;25.948;2022-12-10T01:39:19;131.52;;;76.43;;
45274;SDS011;31019;43.780;25.948;2022-12-10T01:41:48;163.50;;;94.78;;
45274;SDS011;31019;43.780;25.948;2022-12-10T01:50:07;206.27;;;121.07;;
45274;SDS011;31019;43.780;25.948;2022-12-10T01:52:35;198.80;;;108.47;;
45274;SDS011;31019;43.780;25.948;2022-12-10T01:55:08;231.65;;;111.07;;
45274;SDS011;31019;43.780;25.948;2022-12-10T01:58:08;213.88;;;109.45;;
45274;SDS011;31019;43.780;25.948;2022-12-10T02:00:37;221.27;;;110.78;;
45274;SDS011;31019;43.780;25.948;2022-12-10T02:03:17;266.80;;;115.88;;
45274;SDS011;31019;43.780;25.948;2022-12-10T02:05:52;222.20;;;120.38;;
45274;SDS011;31019;43.780;25.948;2022-12-10T02:11:03;183.40;;;111.82;;
45274;SDS011;31019;43.780;25.948;2022-12-10T02:13:52;222.52;;;116.25;;
45274;SDS011;31019;43.780;25.948;2022-12-10T02:16:26;250.63;;;109.22;;
45274;SDS011;31019;43.780;25.948;2022-12-10T02:18:59;154.18;;;103.53;;
45274;SDS011;31019;43.780;25.948;2022-12-10T02:21:36;166.60;;;104.18;;
45274;SDS011;31019;43.780;25.948;2022-12-10T02:24:08;163.02;;;108.55;;
45274;SDS011;31019;43.780;25.948;2022-12-10T02:26:42;151.70;;;96.68;;
45274;SDS011;31019;43.780;25.948;2022-12-10T02:29:21;131.07;;;89.55;;
45274;SDS011;31019;43.780;25.948;2022-12-10T02:34:26;124.55;;;81.25;;
45274;SDS011;31019;43.780;25.948;2022-12-10T02:36:57;101.65;;;71.97;;
45274;SDS011;31019;43.780;25.948;2022-12-10T02:39:27;114.43;;;76.95;;
45274;SDS011;31019;43.780;25.948;2022-12-10T02:42:07;102.45;;;65.28;;
45274;SDS011;31019;43.780;25.948;2022-12-10T02:44:37;121.18;;;77.20;;
45274;SDS011;31019;43.780;25.948;2022-12-10T02:47:07;111.30;;;62.97;;
45274;SDS011;31019;43.780;25.948;2022-12-10T02:49:35;122.13;;;72.53;;
45274;SDS011;31019;43.780;25.948;2022-12-10T02:52:06;127.53;;;69.82;;
45274;SDS011;31019;43.780;25.948;2022-12-10T02:54:35;112.03;;;79.45;;
45274;SDS011;31019;43.780;25.948;2022-12-10T02:57:07;103.28;;;66.05;;
45274;SDS011;31019;43.780;25.948;2022-12-10T02:59:49;92.75;;;62.70;;
45274;SDS011;31019;43.780;25.948;2022-12-10T03:02:28;110.97;;;72.63;;
45274;SDS011;31019;43.780;25.948;2022-12-10T03:05:01;90.13;;;67.32;;
45274;SDS011;31019;43.780;25.948;2022-12-10T03:07:33;87.70;;;63.17;;
45274;SDS011;31019;43.780;25.948;2022-12-10T03:10:07;80.85;;;69.13;;
45274;SDS011;31019;43.780;25.948;2022-12-10T03:12:41;73.60;;;65.65;;
45274;SDS011;31019;43.780;25.948;2022-12-10T03:17:45;71.88;;;61.90;;
45274;SDS011;31019;43.780;25.948;2022-12-10T03:20:14;88.60;;;68.53;;
45274;SDS011;31019;43.780;25.948;2022-12-10T03:22:43;74.88;;;63.40;;
45274;SDS011;31019;43.780;25.948;2022-12-10T03:25:12;108.13;;;62.38;;
45274;SDS011;31019;43.780;25.948;2022-12-10T03:27:43;72.47;;;65.15;;
45274;SDS011;31019;43.780;25.948;2022-12-10T03:30:15;100.57;;;70.32;;
45274;SDS011;31019;43.780;25.948;2022-12-10T03:32:43;80.05;;;65.25;;
45274;SDS011;31019;43.780;25.948;2022-12-10T03:35:11;100.95;;;71.78;;
45274;SDS011;31019;43.780;25.948;2022-12-10T03:37:39;125.35;;;81.97;;
45274;SDS011;31019;43.780;25.948;2022-12-10T03:40:06;102.30;;;71.35;;
45274;SDS011;31019;43.780;25.948;2022-12-10T03:42:35;119.82;;;81.43;;
45274;SDS011;31019;43.780;25.948;2022-12-10T03:45:04;98.40;;;62.92;;
45274;SDS011;31019;43.780;25.948;2022-12-10T03:47:39;99.47;;;68.57;;
45274;SDS011;31019;43.780;25.948;2022-12-10T03:52:52;103.18;;;60.10;;
45274;SDS011;31019;43.780;25.948;2022-12-10T03:55:18;83.47;;;62.70;;
45274;SDS011;31019;43.780;25.948;2022-12-10T03:57:47;90.38;;;60.92;;
45274;SDS011;31019;43.780;25.948;2022-12-10T04:00:14;87.60;;;66.63;;
45274;SDS011;31019;43.780;25.948;2022-12-10T04:05:12;87.25;;;64.70;;
45274;SDS011;31019;43.780;25.948;2022-12-10T04:07:40;93.50;;;69.13;;
45274;SDS011;31019;43.780;25.948;2022-12-10T04:10:08;227.38;;;113.25;;
45274;SDS011;31019;43.780;25.948;2022-12-10T04:12:44;246.82;;;125.10;;
45274;SDS011;31019;43.780;25.948;2022-12-10T04:18:23;113.65;;;63.17;;
45274;SDS011;31019;43.780;25.948;2022-12-10T04:20:56;196.80;;;103.18;;
45274;SDS011;31019;43.780;25.948;2022-12-10T04:23:43;157.85;;;88.55;;
45274;SDS011;31019;43.780;25.948;2022-12-10T04:29:20;107.05;;;66.97;;
45274;SDS011;31019;43.780;25.948;2022-12-10T04:31:48;94.00;;;63.45;;
45274;SDS011;31019;43.780;25.948;2022-12-10T04:34:15;110.65;;;68.90;;
45274;SDS011;31019;43.780;25.948;2022-12-10T04:36:44;127.10;;;64.40;;
45274;SDS011;31019;43.780;25.948;2022-12-10T04:41:43;95.70;;;57.50;;
45274;SDS011;31019;43.780;25.948;2022-12-10T04:44:11;97.32;;;58.85;;
45274;SDS011;31019;43.780;25.948;2022-12-10T04:46:38;100.47;;;57.35;;
45274;SDS011;31019;43.780;25.948;2022-12-10T04:49:05;88.93;;;59.20;;
45274;SDS011;31019;43.780;25.948;2022-12-10T04:51:32;83.45;;;57.00;;
45274;SDS011;31019;43.780;25.948;2022-12-10T04:53:59;104.18;;;58.63;;
45274;SDS011;31019;43.780;25.948;2022-12-10T04:56:27;100.70;;;68.38;;
45274;SDS011;31019;43.780;25.948;2022-12-10T04:58:54;129.35;;;75.95;;
45274;SDS011;31019;43.780;25.948;2022-12-10T05:01:22;120.22;;;73.32;;
45274;SDS011;31019;43.780;25.948;2022-12-10T05:03:49;133.32;;;68.72;;
45274;SDS011;31019;43.780;25.948;2022-12-10T05:06:17;174.40;;;79.65;;
45274;SDS011;31019;43.780;25.948;2022-12-10T05:08:45;106.38;;;61.45;;
45274;SDS011;31019;43.780;25.948;2022-12-10T05:11:15;130.10;;;69.82;;
45274;SDS011;31019;43.780;25.948;2022-12-10T05:13:44;95.25;;;58.17;;
45274;SDS011;31019;43.780;25.948;2022-12-10T05:16:13;100.07;;;60.03;;
45274;SDS011;31019;43.780;25.948;2022-12-10T05:18:41;95.45;;;64.70;;
45274;SDS011;31019;43.780;25.948;2022-12-10T05:21:10;89.80;;;57.70;;
45274;SDS011;31019;43.780;25.948;2022-12-10T05:23:38;91.70;;;60.20;;
45274;SDS011;31019;43.780;25.948;2022-12-10T05:26:07;93.45;;;63.28;;
45274;SDS011;31019;43.780;25.948;2022-12-10T05:28:36;91.38;;;62.17;;
45274;SDS011;31019;43.780;25.948;2022-12-10T05:31:10;124.45;;;64.45;;
45274;SDS011;31019;43.780;25.948;2022-12-10T05:33:39;93.30;;;62.85;;
45274;SDS011;31019;43.780;25.948;2022-12-10T05:38:44;74.50;;;55.08;;
45274;SDS011;31019;43.780;25.948;2022-12-10T05:41:11;94.40;;;62.55;;
45274;SDS011;31019;43.780;25.948;2022-12-10T05:43:48;85.70;;;58.53;;
45274;SDS011;31019;43.780;25.948;2022-12-10T05:46:29;76.18;;;55.60;;
45274;SDS011;31019;43.780;25.948;2022-12-10T05:48:58;72.25;;;54.25;;
45274;SDS011;31019;43.780;25.948;2022-12-10T05:51:27;57.78;;;49.63;;
45274;SDS011;31019;43.780;25.948;2022-12-10T05:53:55;59.60;;;49.38;;
45274;SDS011;31019;43.780;25.948;2022-12-10T05:56:24;60.53;;;49.15;;
45274;SDS011;31019;43.780;25.948;2022-12-10T05:58:53;65.47;;;52.40;;
45274;SDS011;31019;43.780;25.948;2022-12-10T06:01:21;72.10;;;53.70;;
45274;SDS011;31019;43.780;25.948;2022-12-10T06:03:52;363.80;;;115.55;;
45274;SDS011;31019;43.780;25.948;2022-12-10T06:06:20;402.30;;;131.25;;
45274;SDS011;31019;43.780;25.948;2022-12-10T06:08:47;928.22;;;334.05;;
45274;SDS011;31019;43.780;25.948;2022-12-10T06:11:14;298.27;;;113.00;;
45274;SDS011;31019;43.780;25.948;2022-12-10T06:13:41;148.20;;;76.72;;
45274;SDS011;31019;43.780;25.948;2022-12-10T06:16:09;79.82;;;61.42;;
45274;SDS011;31019;43.780;25.948;2022-12-10T06:18:37;70.85;;;55.47;;
45274;SDS011;31019;43.780;25.948;2022-12-10T06:21:07;93.15;;;64.22;;
45274;SDS011;31019;43.780;25.948;2022-12-10T06:23:45;143.07;;;77.93;;
45274;SDS011;31019;43.780;25.948;2022-12-10T06:26:13;85.55;;;60.28;;
45274;SDS011;31019;43.780;25.948;2022-12-10T06:28:43;80.20;;;59.15;;
45274;SDS011;31019;43.780;25.948;2022-12-10T06:31:11;83.07;;;60.85;;
45274;SDS011;31019;43.780;25.948;2022-12-10T06:33:38;72.68;;;58.35;;
45274;SDS011;31019;43.780;25.948;2022-12-10T06:36:07;79.80;;;59.70;;
45274;SDS011;31019;43.780;25.948;2022-12-10T06:38:36;72.07;;;61.30;;
45274;SDS011;31019;43.780;25.948;2022-12-10T06:41:04;129.30;;;82.95;;
45274;SDS011;31019;43.780;25.948;2022-12-10T06:43:32;158.80;;;97.55;;
45274;SDS011;31019;43.780;25.948;2022-12-10T06:46:00;90.40;;;72.18;;
45274;SDS011;31019;43.780;25.948;2022-12-10T06:48:33;72.03;;;61.75;;
45274;SDS011;31019;43.780;25.948;2022-12-10T06:51:01;107.32;;;79.95;;
45274;SDS011;31019;43.780;25.948;2022-12-10T06:53:30;80.63;;;64.85;;
45274;SDS011;31019;43.780;25.948;2022-12-10T06:55:58;84.53;;;68.55;;
45274;SDS011;31019;43.780;25.948;2022-12-10T06:58:27;98.10;;;77.53;;
45274;SDS011;31019;43.780;25.948;2022-12-10T07:00:54;74.15;;;65.57;;
45274;SDS011;31019;43.780;25.948;2022-12-10T07:03:30;62.45;;;55.85;;
45274;SDS011;31019;43.780;25.948;2022-12-10T07:06:01;66.97;;;59.17;;
45274;SDS011;31019;43.780;25.948;2022-12-10T07:11:10;58.45;;;52.17;;
45274;SDS011;31019;43.780;25.948;2022-12-10T07:13:39;62.83;;;56.50;;
45274;SDS011;31019;43.780;25.948;2022-12-10T07:16:11;62.92;;;56.58;;
45274;SDS011;31019;43.780;25.948;2022-12-10T07:18:39;66.22;;;57.58;;
45274;SDS011;31019;43.780;25.948;2022-12-10T07:21:12;63.35;;;56.85;;
45274;SDS011;31019;43.780;25.948;2022-12-10T07:23:40;62.33;;;56.17;;
45274;SDS011;31019;43.780;25.948;2022-12-10T07:26:09;67.97;;;60.75;;
45274;SDS011;31019;43.780;25.948;2022-12-10T07:28:37;74.80;;;65.00;;
45274;SDS011;31019;43.780;25.948;2022-12-10T07:31:06;71.47;;;63.80;;
45274;SDS011;31019;43.780;25.948;2022-12-10T07:33:34;52.42;;;48.25;;
45274;SDS011;31019;43.780;25.948;2022-12-10T07:36:10;48.30;;;44.30;;
45274;SDS011;31019;43.780;25.948;2022-12-10T07:38:41;48.60;;;44.80;;
45274;SDS011;31019;43.780;25.948;2022-12-10T07:41:13;51.20;;;46.92;;
45274;SDS011;31019;43.780;25.948;2022-12-10T07:43:42;51.10;;;46.90;;
45274;SDS011;31019;43.780;25.948;2022-12-10T07:48:54;52.33;;;47.83;;
45274;SDS011;31019;43.780;25.948;2022-12-10T07:51:22;52.03;;;47.83;;
45274;SDS011;31019;43.780;25.948;2022-12-10T07:56:32;46.25;;;42.45;;
45274;SDS011;31019;43.780;25.948;2022-12-10T07:58:58;46.90;;;43.42;;
45274;SDS011;31019;43.780;25.948;2022-12-10T08:01:25;45.85;;;42.38;;
45274;SDS011;31019;43.780;25.948;2022-12-10T08:03:53;46.85;;;43.20;;
45274;SDS011;31019;43.780;25.948;2022-12-10T08:06:22;48.00;;;44.33;;
45274;SDS011;31019;43.780;25.948;2022-12-10T08:08:50;48.70;;;44.92;;
45274;SDS011;31019;43.780;25.948;2022-12-10T08:11:18;51.83;;;48.33;;
45274;SDS011;31019;43.780;25.948;2022-12-10T08:13:47;49.38;;;46.00;;
45274;SDS011;31019;43.780;25.948;2022-12-10T08:16:14;48.15;;;44.75;;
45274;SDS011;31019;43.780;25.948;2022-12-10T08:18:44;48.03;;;44.35;;
45274;SDS011;31019;43.780;25.948;2022-12-10T08:23:48;47.60;;;44.20;;
45274;SDS011;31019;43.780;25.948;2022-12-10T08:26:15;49.63;;;45.80;;
45274;SDS011;31019;43.780;25.948;2022-12-10T08:28:44;53.13;;;48.67;;
45274;SDS011;31019;43.780;25.948;2022-12-10T08:31:19;52.95;;;48.90;;
45274;SDS011;31019;43.780;25.948;2022-12-10T08:33:47;52.78;;;48.78;;
45274;SDS011;31019;43.780;25.948;2022-12-10T08:36:16;53.75;;;50.15;;
45274;SDS011;31019;43.780;25.948;2022-12-10T08:38:49;56.08;;;51.78;;
45274;SDS011;31019;43.780;25.948;2022-12-10T08:41:17;52.38;;;48.78;;
45274;SDS011;31019;43.780;25.948;2022-12-10T08:43:45;52.97;;;49.38;;
45274;SDS011;31019;43.780;25.948;2022-12-10T08:46:14;52.22;;;48.67;;
45274;SDS011;31019;43.780;25.948;2022-12-10T08:48:44;53.58;;;49.80;;
45274;SDS011;31019;43.780;25.948;2022-12-10T08:51:13;53.80;;;49.78;;
45274;SDS011;31019;43.780;25.948;2022-12-10T08:53:42;55.53;;;51.08;;
45274;SDS011;31019;43.780;25.948;2022-12-10T08:56:09;50.65;;;46.85;;
45274;SDS011;31019;43.780;25.948;2022-12-10T08:58:36;52.15;;;47.95;;
45274;SDS011;31019;43.780;25.948;2022-12-10T09:01:05;51.28;;;47.60;;
45274;SDS011;31019;43.780;25.948;2022-12-10T09:03:32;49.13;;;45.05;;
45274;SDS011;31019;43.780;25.948;2022-12-10T09:06:02;49.22;;;45.75;;
45274;SDS011;31019;43.780;25.948;2022-12-10T09:08:30;53.55;;;49.70;;
45274;SDS011;31019;43.780;25.948;2022-12-10T09:10:57;49.15;;;45.70;;
45274;SDS011;31019;43.780;25.948;2022-12-10T09:13:24;48.70;;;45.40;;
45274;SDS011;31019;43.780;25.948;2022-12-10T09:15:52;48.28;;;44.97;;
45274;SDS011;31019;43.780;25.948;2022-12-10T09:18:19;50.65;;;47.15;;
45274;SDS011;31019;43.780;25.948;2022-12-10T09:20:45;48.97;;;45.60;;
45274;SDS011;31019;43.780;25.948;2022-12-10T09:23:14;48.40;;;44.75;;
45274;SDS011;31019;43.780;25.948;2022-12-10T09:25:40;49.42;;;45.65;;
45274;SDS011;31019;43.780;25.948;2022-12-10T09:28:07;49.60;;;45.95;;
45274;SDS011;31019;43.780;25.948;2022-12-10T09:30:34;48.05;;;44.60;;
45274;SDS011;31019;43.780;25.948;2022-12-10T09:33:01;57.75;;;52.35;;
45274;SDS011;31019;43.780;25.948;2022-12-10T09:35:27;52.90;;;48.78;;
45274;SDS011;31019;43.780;25.948;2022-12-10T09:37:54;52.55;;;48.78;;
45274;SDS011;31019;43.780;25.948;2022-12-10T09:40:24;50.47;;;46.78;;
45274;SDS011;31019;43.780;25.948;2022-12-10T09:43:00;54.15;;;50.17;;
45274;SDS011;31019;43.780;25.948;2022-12-10T09:45:32;50.73;;;46.67;;
45274;SDS011;31019;43.780;25.948;2022-12-10T09:48:10;48.90;;;45.42;;
45274;SDS011;31019;43.780;25.948;2022-12-10T09:50:48;49.17;;;45.92;;
45274;SDS011;31019;43.780;25.948;2022-12-10T09:53:21;55.15;;;51.72;;
45274;SDS011;31019;43.780;25.948;2022-12-10T09:55:50;51.22;;;48.05;;
45274;SDS011;31019;43.780;25.948;2022-12-10T09:58:18;52.80;;;49.38;;
45274;SDS011;31019;43.780;25.948;2022-12-10T10:00:47;49.05;;;45.85;;
45274;SDS011;31019;43.780;25.948;2022-12-10T10:03:17;50.20;;;47.10;;
45274;SDS011;31019;43.780;25.948;2022-12-10T10:05:45;48.85;;;45.65;;
45274;SDS011;31019;43.780;25.948;2022-12-10T10:08:15;48.97;;;45.88;;
45274;SDS011;31019;43.780;25.948;2022-12-10T10:10:50;53.50;;;49.60;;
45274;SDS011;31019;43.780;25.948;2022-12-10T10:13:21;53.13;;;49.70;;
45274;SDS011;31019;43.780;25.948;2022-12-10T10:15:55;55.10;;;51.63;;
45274;SDS011;31019;43.780;25.948;2022-12-10T10:18:26;54.22;;;50.53;;
45274;SDS011;31019;43.780;25.948;2022-12-10T10:20:59;54.97;;;51.00;;
45274;SDS011;31019;43.780;25.948;2022-12-10T10:23:26;53.15;;;49.45;;
45274;SDS011;31019;43.780;25.948;2022-12-10T10:25:54;54.85;;;50.33;;
45274;SDS011;31019;43.780;25.948;2022-12-10T10:28:21;53.53;;;49.78;;
45274;SDS011;31019;43.780;25.948;2022-12-10T10:30:49;55.10;;;51.10;;
45274;SDS011;31019;43.780;25.948;2022-12-10T10:33:17;53.45;;;49.40;;
45274;SDS011;31019;43.780;25.948;2022-12-10T10:35:45;54.97;;;50.63;;
45274;SDS011;31019;43.780;25.948;2022-12-10T10:38:16;56.10;;;51.78;;
45274;SDS011;31019;43.780;25.948;2022-12-10T10:40:46;58.90;;;54.30;;
45274;SDS011;31019;43.780;25.948;2022-12-10T10:43:20;58.55;;;53.17;;
45274;SDS011;31019;43.780;25.948;2022-12-10T10:45:49;57.15;;;51.80;;
45274;SDS011;31019;43.780;25.948;2022-12-10T10:48:19;50.75;;;46.95;;
45274;SDS011;31019;43.780;25.948;2022-12-10T10:50:48;54.38;;;50.03;;
45274;SDS011;31019;43.780;25.948;2022-12-10T10:53:27;56.42;;;52.53;;
45274;SDS011;31019;43.780;25.948;2022-12-10T10:55:59;56.00;;;52.15;;
45274;SDS011;31019;43.780;25.948;2022-12-10T10:58:34;52.63;;;48.63;;
45274;SDS011;31019;43.780;25.948;2022-12-10T11:01:03;54.33;;;50.67;;
45274;SDS011;31019;43.780;25.948;2022-12-10T11:03:32;56.90;;;52.60;;
45274;SDS011;31019;43.780;25.948;2022-12-10T11:06:04;60.78;;;55.83;;
45274;SDS011;31019;43.780;25.948;2022-12-10T11:08:34;55.90;;;51.15;;
45274;SDS011;31019;43.780;25.948;2022-12-10T11:11:05;56.25;;;51.53;;
45274;SDS011;31019;43.780;25.948;2022-12-10T11:13:38;56.90;;;52.38;;
45274;SDS011;31019;43.780;25.948;2022-12-10T11:16:09;60.00;;;55.15;;
45274;SDS011;31019;43.780;25.948;2022-12-10T11:18:39;60.95;;;56.20;;
45274;SDS011;31019;43.780;25.948;2022-12-10T11:21:15;63.60;;;58.15;;
45274;SDS011;31019;43.780;25.948;2022-12-10T11:23:47;68.68;;;61.97;;
45274;SDS011;31019;43.780;25.948;2022-12-10T11:29:24;63.30;;;58.10;;
45274;SDS011;31019;43.780;25.948;2022-12-10T11:32:03;81.10;;;73.53;;
45274;SDS011;31019;43.780;25.948;2022-12-10T11:34:43;64.60;;;58.80;;
45274;SDS011;31019;43.780;25.948;2022-12-10T11:37:25;64.13;;;58.70;;
45274;SDS011;31019;43.780;25.948;2022-12-10T11:40:01;66.30;;;60.70;;
45274;SDS011;31019;43.780;25.948;2022-12-10T11:42:38;62.60;;;57.17;;
45274;SDS011;31019;43.780;25.948;2022-12-10T11:45:18;68.70;;;62.05;;
45274;SDS011;31019;43.780;25.948;2022-12-10T11:48:01;68.70;;;62.10;;
45274;SDS011;31019;43.780;25.948;2022-12-10T11:50:38;62.55;;;57.22;;
45274;SDS011;31019;43.780;25.948;2022-12-10T11:53:13;69.22;;;63.15;;
45274;SDS011;31019;43.780;25.948;2022-12-10T11:55:55;69.45;;;63.72;;
45274;SDS011;31019;43.780;25.948;2022-12-10T11:58:35;63.05;;;58.03;;
45274;SDS011;31019;43.780;25.948;2022-12-10T12:01:18;62.72;;;57.88;;
45274;SDS011;31019;43.780;25.948;2022-12-10T12:04:00;59.20;;;54.75;;
45274;SDS011;31019;43.780;25.948;2022-12-10T12:07:16;58.70;;;53.90;;
45274;SDS011;31019;43.780;25.948;2022-12-10T12:09:56;62.20;;;56.90;;
45274;SDS011;31019;43.780;25.948;2022-12-10T12:12:45;67.38;;;61.33;;
45274;SDS011;31019;43.780;25.948;2022-12-10T12:15:18;60.58;;;55.67;;
45274;SDS011;31019;43.780;25.948;2022-12-10T12:17:52;64.93;;;59.10;;
45274;SDS011;31019;43.780;25.948;2022-12-10T12:20:23;67.72;;;61.67;;
45274;SDS011;31019;43.780;25.948;2022-12-10T12:25:26;69.85;;;63.15;;
45274;SDS011;31019;43.780;25.948;2022-12-10T12:27:58;72.20;;;65.25;;
45274;SDS011;31019;43.780;25.948;2022-12-10T12:30:29;73.30;;;66.47;;
45274;SDS011;31019;43.780;25.948;2022-12-10T12:33:03;66.13;;;60.50;;
45274;SDS011;31019;43.780;25.948;2022-12-10T12:35:38;68.53;;;62.10;;
45274;SDS011;31019;43.780;25.948;2022-12-10T12:38:14;70.25;;;63.53;;
45274;SDS011;31019;43.780;25.948;2022-12-10T12:40:51;70.30;;;63.83;;
45274;SDS011;31019;43.780;25.948;2022-12-10T12:43:22;66.03;;;60.45;;
45274;SDS011;31019;43.780;25.948;2022-12-10T12:45:54;67.82;;;61.47;;
45274;SDS011;31019;43.780;25.948;2022-12-10T12:48:25;71.97;;;65.43;;
45274;SDS011;31019;43.780;25.948;2022-12-10T12:50:59;70.57;;;63.15;;
45274;SDS011;31019;43.780;25.948;2022-12-10T12:53:31;64.05;;;57.90;;
45274;SDS011;31019;43.780;25.948;2022-12-10T12:56:02;79.82;;;71.32;;
45274;SDS011;31019;43.780;25.948;2022-12-10T12:58:33;74.35;;;66.55;;
45274;SDS011;31019;43.780;25.948;2022-12-10T13:01:12;69.72;;;63.00;;
45274;SDS011;31019;43.780;25.948;2022-12-10T13:03:46;68.85;;;62.08;;
45274;SDS011;31019;43.780;25.948;2022-12-10T13:06:20;71.78;;;65.18;;
45274;SDS011;31019;43.780;25.948;2022-12-10T13:08:52;76.75;;;69.72;;
45274;SDS011;31019;43.780;25.948;2022-12-10T13:11:30;88.68;;;80.50;;
45274;SDS011;31019;43.780;25.948;2022-12-10T13:17:24;82.32;;;73.97;;
45274;SDS011;31019;43.780;25.948;2022-12-10T13:20:24;81.13;;;73.40;;
45274;SDS011;31019;43.780;25.948;2022-12-10T13:22:55;84.13;;;75.88;;
45274;SDS011;31019;43.780;25.948;2022-12-10T13:25:37;82.80;;;74.65;;
45274;SDS011;31019;43.780;25.948;2022-12-10T13:28:16;79.88;;;71.78;;
45274;SDS011;31019;43.780;25.948;2022-12-10T13:33:45;81.57;;;73.90;;
45274;SDS011;31019;43.780;25.948;2022-12-10T13:36:20;74.22;;;66.00;;
45274;SDS011;31019;43.780;25.948;2022-12-10T13:39:10;99.60;;;76.03;;
45274;SDS011;31019;43.780;25.948;2022-12-10T13:45:23;92.32;;;74.70;;
45274;SDS011;31019;43.780;25.948;2022-12-10T13:47:52;101.75;;;80.90;;
45274;SDS011;31019;43.780;25.948;2022-12-10T13:50:22;85.88;;;71.97;;
45274;SDS011;31019;43.780;25.948;2022-12-10T13:52:59;80.22;;;71.47;;
45274;SDS011;31019;43.780;25.948;2022-12-10T13:55:36;90.88;;;74.78;;
45274;SDS011;31019;43.780;25.948;2022-12-10T14:01:00;86.97;;;71.15;;
45274;SDS011;31019;43.780;25.948;2022-12-10T14:06:41;73.13;;;65.63;;
45274;SDS011;31019;43.780;25.948;2022-12-10T14:09:12;84.20;;;74.53;;
45274;SDS011;31019;43.780;25.948;2022-12-10T14:11:45;102.43;;;78.10;;
45274;SDS011;31019;43.780;25.948;2022-12-10T14:14:16;88.40;;;74.13;;
45274;SDS011;31019;43.780;25.948;2022-12-10T14:16:49;91.53;;;75.20;;
45274;SDS011;31019;43.780;25.948;2022-12-10T14:19:16;91.53;;;81.38;;
45274;SDS011;31019;43.780;25.948;2022-12-10T14:21:44;104.35;;;92.93;;
45274;SDS011;31019;43.780;25.948;2022-12-10T14:24:30;73.88;;;66.40;;
45274;SDS011;31019;43.780;25.948;2022-12-10T14:27:00;77.80;;;69.53;;
45274;SDS011;31019;43.780;25.948;2022-12-10T14:29:29;433.67;;;307.38;;
45274;SDS011;31019;43.780;25.948;2022-12-10T14:31:56;104.20;;;93.07;;
45274;SDS011;31019;43.780;25.948;2022-12-10T14:34:24;125.35;;;106.55;;
45274;SDS011;31019;43.780;25.948;2022-12-10T14:36:54;111.43;;;99.07;;
45274;SDS011;31019;43.780;25.948;2022-12-10T14:39:24;89.28;;;80.75;;
45274;SDS011;31019;43.780;25.948;2022-12-10T14:41:55;84.95;;;76.70;;
45274;SDS011;31019;43.780;25.948;2022-12-10T14:44:23;86.22;;;77.68;;
45274;SDS011;31019;43.780;25.948;2022-12-10T14:46:51;88.72;;;79.90;;
45274;SDS011;31019;43.780;25.948;2022-12-10T14:49:29;254.15;;;157.60;;
45274;SDS011;31019;43.780;25.948;2022-12-10T14:51:56;113.15;;;100.47;;
45274;SDS011;31019;43.780;25.948;2022-12-10T14:54:24;83.85;;;76.43;;
45274;SDS011;31019;43.780;25.948;2022-12-10T14:56:54;83.28;;;75.15;;
45274;SDS011;31019;43.780;25.948;2022-12-10T14:59:23;85.43;;;77.32;;
45274;SDS011;31019;43.780;25.948;2022-12-10T15:01:55;83.68;;;75.43;;
45274;SDS011;31019;43.780;25.948;2022-12-10T15:04:24;151.27;;;114.25;;
45274;SDS011;31019;43.780;25.948;2022-12-10T15:06:58;149.13;;;113.80;;
45274;SDS011;31019;43.780;25.948;2022-12-10T15:09:27;96.28;;;83.93;;
45274;SDS011;31019;43.780;25.948;2022-12-10T15:11:55;101.50;;;90.47;;
45274;SDS011;31019;43.780;25.948;2022-12-10T15:14:25;106.53;;;95.03;;
45274;SDS011;31019;43.780;25.948;2022-12-10T15:16:53;100.75;;;90.00;;
45274;SDS011;31019;43.780;25.948;2022-12-10T15:19:23;103.03;;;91.78;;
45274;SDS011;31019;43.780;25.948;2022-12-10T15:21:58;171.70;;;134.10;;
45274;SDS011;31019;43.780;25.948;2022-12-10T15:24:27;158.38;;;124.15;;
45274;SDS011;31019;43.780;25.948;2022-12-10T15:27:13;171.73;;;118.00;;
45274;SDS011;31019;43.780;25.948;2022-12-10T15:29:41;158.68;;;116.82;;
45274;SDS011;31019;43.780;25.948;2022-12-10T15:32:10;149.65;;;109.90;;
45274;SDS011;31019;43.780;25.948;2022-12-10T15:34:44;152.43;;;111.68;;